createdAt,value
2017-04-29T00:00:40.487Z,1009.90
2017-04-29T00:01:40.537Z,1009.89
2017-04-29T00:02:35.512Z,1009.93
2017-04-29T00:03:30.566Z,1009.88
2017-04-29T00:04:32.055Z,1009.93
2017-04-29T00:05:26.614Z,1009.90
2017-04-29T00:06:15.617Z,1009.92
2017-04-29T00:07:10.697Z,1009.93
2017-04-29T00:07:59.745Z,1009.91
2017-04-29T00:08:53.742Z,1009.92
2017-04-29T00:09:47.743Z,1009.90
2017-04-29T00:10:36.835Z,1009.87
2017-04-29T00:11:36.846Z,1009.93
2017-04-29T00:12:24.858Z,1009.92
2017-04-29T00:13:19.917Z,1009.95
2017-04-29T00:14:08.925Z,1009.94
2017-04-29T00:14:58.008Z,1009.91
2017-04-29T00:15:46.039Z,1009.98
2017-04-29T00:16:40.028Z,1009.99
2017-04-29T00:17:28.035Z,1010.01
2017-04-29T00:18:22.122Z,1009.96
2017-04-29T00:19:22.215Z,1009.94
2017-04-29T00:20:22.368Z,1009.95
2017-04-29T00:21:22.263Z,1010.01
2017-04-29T00:22:16.230Z,1009.99
2017-04-29T00:23:17.247Z,1009.98
2017-04-29T00:24:17.310Z,1009.94
2017-04-29T00:25:12.321Z,1009.94
2017-04-29T00:26:12.357Z,1009.96
2017-04-29T00:27:06.381Z,1009.96
2017-04-29T00:28:07.494Z,1009.94
2017-04-29T00:29:07.454Z,1009.94
2017-04-29T00:30:02.476Z,1009.92
2017-04-29T00:30:51.525Z,1009.87
2017-04-29T00:31:40.521Z,1009.91
2017-04-29T00:32:29.508Z,1009.91
2017-04-29T00:33:23.596Z,1009.92
2017-04-29T00:34:18.610Z,1009.95
2017-04-29T00:35:12.635Z,1009.95
2017-04-29T00:36:06.696Z,1009.95
2017-04-29T00:37:02.044Z,1009.90
2017-04-29T00:37:50.732Z,1009.90
2017-04-29T00:38:38.792Z,1009.94
2017-04-29T00:39:26.883Z,1009.94
2017-04-29T00:40:15.810Z,1009.94
2017-04-29T00:41:03.887Z,1009.99
2017-04-29T00:41:52.961Z,1010.00
2017-04-29T00:42:41.994Z,1010.00
2017-04-29T00:43:31.041Z,1010.02
2017-04-29T00:44:19.032Z,1010.04
2017-04-29T00:45:08.107Z,1010.04
2017-04-29T00:45:56.152Z,1010.04
2017-04-29T00:46:45.206Z,1010.04
2017-04-29T00:47:39.196Z,1010.06
2017-04-29T00:48:34.278Z,1010.06
2017-04-29T00:49:23.229Z,1010.02
2017-04-29T00:50:17.301Z,1010.04
2017-04-29T00:51:12.326Z,1010.02
2017-04-29T00:52:06.392Z,1010.03
2017-04-29T00:53:01.417Z,1010.03
2017-04-29T00:53:55.441Z,1010.07
2017-04-29T00:54:50.813Z,1010.07
2017-04-29T00:55:39.467Z,1010.09
2017-04-29T00:56:28.518Z,1010.07
2017-04-29T00:57:17.528Z,1010.11
2017-04-29T00:58:12.552Z,1010.12
2017-04-29T00:59:06.577Z,1010.10
2017-04-29T01:00:01.639Z,1010.19
2017-04-29T01:00:56.648Z,1010.17
2017-04-29T01:01:44.680Z,1010.22
2017-04-29T01:02:32.716Z,1010.24
2017-04-29T01:03:26.728Z,1010.24
2017-04-29T01:04:20.902Z,1010.27
2017-04-29T01:05:15.834Z,1010.23
2017-04-29T01:06:10.834Z,1010.26
2017-04-29T01:06:58.905Z,1010.22
2017-04-29T01:07:46.917Z,1010.26
2017-04-29T01:08:34.989Z,1010.33
2017-04-29T01:09:24.068Z,1010.28
2017-04-29T01:10:12.128Z,1010.32
2017-04-29T01:11:00.092Z,1010.35
2017-04-29T01:12:00.162Z,1010.34
2017-04-29T01:12:55.168Z,1010.34
2017-04-29T01:13:50.186Z,1010.32
2017-04-29T01:14:51.656Z,1010.30
2017-04-29T01:15:51.221Z,1010.34
2017-04-29T01:16:51.287Z,1010.34
2017-04-29T01:17:40.293Z,1010.35
2017-04-29T01:18:29.282Z,1010.32
2017-04-29T01:19:18.353Z,1010.36
2017-04-29T01:20:07.396Z,1010.35
2017-04-29T01:21:08.416Z,1010.35
2017-04-29T01:22:02.446Z,1010.32
2017-04-29T01:22:50.507Z,1010.32
2017-04-29T01:23:39.554Z,1010.33
2017-04-29T01:24:28.544Z,1010.33
2017-04-29T01:25:23.361Z,1010.33
2017-04-29T01:26:11.653Z,1010.29
2017-04-29T01:27:05.674Z,1010.33
2017-04-29T01:27:53.645Z,1010.32
2017-04-29T01:28:47.715Z,1010.31
2017-04-29T01:29:35.748Z,1010.31
2017-04-29T01:30:35.800Z,1010.34
2017-04-29T01:31:23.845Z,1010.34
2017-04-29T01:32:18.835Z,1010.39
2017-04-29T01:33:06.951Z,1010.37
2017-04-29T01:33:54.953Z,1010.38
2017-04-29T01:34:43.941Z,1010.39
2017-04-29T01:35:31.990Z,1010.41
2017-04-29T01:36:20.052Z,1010.43
2017-04-29T01:37:08.093Z,1010.39
2017-04-29T01:37:57.112Z,1010.39
2017-04-29T01:38:51.230Z,1010.41
2017-04-29T01:39:39.209Z,1010.39
2017-04-29T01:40:27.298Z,1010.42
2017-04-29T01:41:16.224Z,1010.40
2017-04-29T01:42:04.323Z,1010.37
2017-04-29T01:42:52.406Z,1010.39
2017-04-29T01:43:40.355Z,1010.38
2017-04-29T01:44:28.472Z,1010.37
2017-04-29T01:45:16.419Z,1010.36
2017-04-29T01:46:10.522Z,1010.39
2017-04-29T01:47:05.557Z,1010.40
2017-04-29T01:48:05.544Z,1010.41
2017-04-29T01:49:00.534Z,1010.42
2017-04-29T01:49:49.621Z,1010.45
2017-04-29T01:50:37.660Z,1010.44
2017-04-29T01:51:32.697Z,1010.45
2017-04-29T01:52:27.734Z,1010.43
2017-04-29T01:53:15.724Z,1010.42
2017-04-29T01:54:03.847Z,1010.42
2017-04-29T01:54:52.249Z,1010.42
2017-04-29T01:55:40.870Z,1010.41
2017-04-29T01:56:28.938Z,1010.42
2017-04-29T01:57:16.940Z,1010.42
2017-04-29T01:58:06.072Z,1010.39
2017-04-29T01:59:00.021Z,1010.45
2017-04-29T02:00:00.013Z,1010.51
2017-04-29T02:00:54.033Z,1010.50
2017-04-29T02:01:55.072Z,1010.52
2017-04-29T02:02:50.160Z,1010.55
2017-04-29T02:03:45.181Z,1010.56
2017-04-29T02:04:40.197Z,1010.55
2017-04-29T02:05:35.205Z,1010.57
2017-04-29T02:06:36.228Z,1010.58
2017-04-29T02:07:36.260Z,1010.57
2017-04-29T02:08:36.259Z,1010.58
2017-04-29T02:09:31.339Z,1010.54
2017-04-29T02:10:25.349Z,1010.55
2017-04-29T02:11:25.412Z,1010.51
2017-04-29T02:12:14.411Z,1010.57
2017-04-29T02:13:08.452Z,1010.54
2017-04-29T02:14:03.498Z,1010.57
2017-04-29T02:15:03.913Z,1010.53
2017-04-29T02:16:03.553Z,1010.51
2017-04-29T02:16:57.559Z,1010.53
2017-04-29T02:17:57.619Z,1010.50
2017-04-29T02:18:52.594Z,1010.52
2017-04-29T02:19:47.658Z,1010.48
2017-04-29T02:20:35.747Z,1010.51
2017-04-29T02:21:30.735Z,1010.53
2017-04-29T02:22:19.759Z,1010.54
2017-04-29T02:23:07.829Z,1010.57
2017-04-29T02:23:56.856Z,1010.58
2017-04-29T02:24:50.873Z,1010.61
2017-04-29T02:25:39.913Z,1010.62
2017-04-29T02:26:39.925Z,1010.59
2017-04-29T02:27:28.945Z,1010.63
2017-04-29T02:28:23.026Z,1010.61
2017-04-29T02:29:18.024Z,1010.63
2017-04-29T02:30:12.041Z,1010.65
2017-04-29T02:31:01.120Z,1010.58
2017-04-29T02:31:49.095Z,1010.61
2017-04-29T02:32:37.191Z,1010.60
2017-04-29T02:33:26.217Z,1010.63
2017-04-29T02:34:20.233Z,1010.60
2017-04-29T02:35:14.255Z,1010.63
2017-04-29T02:36:03.324Z,1010.63
2017-04-29T02:36:57.314Z,1010.66
2017-04-29T02:37:58.354Z,1010.65
2017-04-29T02:38:58.406Z,1010.66
2017-04-29T02:39:58.457Z,1010.65
2017-04-29T02:40:52.452Z,1010.65
2017-04-29T02:41:52.500Z,1010.67
2017-04-29T02:42:46.506Z,1010.63
2017-04-29T02:43:35.559Z,1010.66
2017-04-29T02:44:29.543Z,1010.60
2017-04-29T02:45:17.625Z,1010.59
2017-04-29T02:46:05.678Z,1010.60
2017-04-29T02:46:53.723Z,1010.61
2017-04-29T02:47:41.771Z,1010.63
2017-04-29T02:48:35.755Z,1010.60
2017-04-29T02:49:29.806Z,1010.57
2017-04-29T02:50:17.809Z,1010.57
2017-04-29T02:51:05.853Z,1010.57
2017-04-29T02:52:00.903Z,1010.56
2017-04-29T02:52:54.973Z,1010.57
2017-04-29T02:53:48.953Z,1010.56
2017-04-29T02:54:43.014Z,1010.57
2017-04-29T02:55:43.014Z,1010.59
2017-04-29T02:56:32.047Z,1010.61
2017-04-29T02:57:21.069Z,1010.58
2017-04-29T02:58:10.121Z,1010.58
2017-04-29T02:59:10.123Z,1010.59
2017-04-29T03:00:04.191Z,1010.58
2017-04-29T03:00:58.267Z,1010.60
2017-04-29T03:01:53.263Z,1010.56
2017-04-29T03:02:42.446Z,1010.57
2017-04-29T03:03:30.326Z,1010.60
2017-04-29T03:04:18.348Z,1010.62
2017-04-29T03:05:12.393Z,1010.66
2017-04-29T03:06:07.753Z,1010.63
2017-04-29T03:06:55.463Z,1010.65
2017-04-29T03:07:49.510Z,1010.63
2017-04-29T03:08:55.551Z,1010.69
2017-04-29T03:09:56.167Z,1010.66
2017-04-29T03:10:49.547Z,1010.71
2017-04-29T03:11:44.606Z,1010.69
2017-04-29T03:12:33.652Z,1010.74
2017-04-29T03:13:22.688Z,1010.72
2017-04-29T03:14:10.671Z,1010.75
2017-04-29T03:14:58.771Z,1010.71
2017-04-29T03:15:52.736Z,1010.73
2017-04-29T03:16:41.854Z,1010.74
2017-04-29T03:17:35.857Z,1010.71
2017-04-29T03:18:30.080Z,1010.75
2017-04-29T03:19:29.941Z,1010.72
2017-04-29T03:20:25.068Z,1010.73
2017-04-29T03:21:30.975Z,1010.71
2017-04-29T03:22:30.958Z,1010.75
2017-04-29T03:23:32.009Z,1010.76
2017-04-29T03:24:26.059Z,1010.80
2017-04-29T03:25:26.047Z,1010.76
2017-04-29T03:26:21.125Z,1010.79
2017-04-29T03:27:21.110Z,1010.80
2017-04-29T03:28:21.201Z,1010.80
2017-04-29T03:29:21.213Z,1010.81
2017-04-29T03:30:21.309Z,1010.81
2017-04-29T03:31:27.275Z,1010.83
2017-04-29T03:32:22.278Z,1010.82
2017-04-29T03:33:22.281Z,1010.82
2017-04-29T03:34:17.308Z,1010.82
2017-04-29T03:35:12.378Z,1010.80
2017-04-29T03:36:13.319Z,1010.78
2017-04-29T03:37:13.395Z,1010.78
2017-04-29T03:38:13.425Z,1010.81
2017-04-29T03:39:13.563Z,1010.77
2017-04-29T03:40:13.497Z,1010.82
2017-04-29T03:41:13.475Z,1010.81
2017-04-29T03:42:13.508Z,1010.82
2017-04-29T03:43:13.493Z,1010.84
2017-04-29T03:44:13.584Z,1010.84
2017-04-29T03:45:13.610Z,1010.84
2017-04-29T03:46:13.601Z,1010.82
2017-04-29T03:47:08.594Z,1010.80
2017-04-29T03:48:02.631Z,1010.86
2017-04-29T03:49:02.689Z,1010.89
2017-04-29T03:49:57.738Z,1010.93
2017-04-29T03:50:52.710Z,1010.86
2017-04-29T03:51:52.798Z,1010.86
2017-04-29T03:52:47.827Z,1010.85
2017-04-29T03:53:42.851Z,1010.83
2017-04-29T03:54:36.866Z,1010.84
2017-04-29T03:55:37.860Z,1010.88
2017-04-29T03:56:32.914Z,1010.88
2017-04-29T03:57:32.966Z,1010.86
2017-04-29T03:58:32.994Z,1010.88
2017-04-29T03:59:27.001Z,1010.86
2017-04-29T04:00:28.036Z,1010.88
2017-04-29T04:01:29.054Z,1010.88
2017-04-29T04:02:29.029Z,1010.88
2017-04-29T04:03:29.131Z,1010.90
2017-04-29T04:04:29.107Z,1010.90
2017-04-29T04:05:29.162Z,1010.93
2017-04-29T04:06:29.199Z,1010.92
2017-04-29T04:07:29.205Z,1010.91
2017-04-29T04:08:29.277Z,1010.93
2017-04-29T04:09:29.247Z,1010.95
2017-04-29T04:10:29.284Z,1010.91
2017-04-29T04:11:29.314Z,1010.94
2017-04-29T04:12:29.330Z,1010.93
2017-04-29T04:13:29.419Z,1010.93
2017-04-29T04:14:29.458Z,1010.93
2017-04-29T04:15:29.408Z,1010.93
2017-04-29T04:16:29.422Z,1010.88
2017-04-29T04:17:29.486Z,1010.89
2017-04-29T04:18:29.490Z,1010.89
2017-04-29T04:19:29.521Z,1010.90
2017-04-29T04:20:18.570Z,1010.92
2017-04-29T04:21:12.602Z,1010.90
2017-04-29T04:22:12.609Z,1010.89
2017-04-29T04:23:12.648Z,1010.87
2017-04-29T04:24:07.719Z,1010.87
2017-04-29T04:25:01.717Z,1010.85
2017-04-29T04:25:55.750Z,1010.89
2017-04-29T04:26:50.930Z,1010.90
2017-04-29T04:27:50.807Z,1010.92
2017-04-29T04:28:44.833Z,1010.89
2017-04-29T04:29:32.858Z,1010.90
2017-04-29T04:30:20.917Z,1010.88
2017-04-29T04:31:09.951Z,1010.95
2017-04-29T04:32:09.992Z,1010.96
2017-04-29T04:33:05.021Z,1010.99
2017-04-29T04:33:53.050Z,1010.97
2017-04-29T04:34:42.094Z,1010.94
2017-04-29T04:35:42.117Z,1010.93
2017-04-29T04:36:30.159Z,1010.90
2017-04-29T04:37:19.221Z,1010.92
2017-04-29T04:38:07.289Z,1010.94
2017-04-29T04:38:56.269Z,1010.97
2017-04-29T04:39:45.777Z,1010.95
2017-04-29T04:40:34.319Z,1010.93
2017-04-29T04:41:22.368Z,1010.90
2017-04-29T04:42:16.391Z,1010.95
2017-04-29T04:43:10.503Z,1010.96
2017-04-29T04:43:58.484Z,1010.93
2017-04-29T04:44:46.464Z,1010.96
2017-04-29T04:45:35.553Z,1010.96
2017-04-29T04:46:23.622Z,1010.94
2017-04-29T04:47:12.689Z,1010.97
2017-04-29T04:48:00.669Z,1010.94
2017-04-29T04:48:48.750Z,1010.97
2017-04-29T04:49:36.779Z,1010.97
2017-04-29T04:50:25.787Z,1010.93
2017-04-29T04:51:14.841Z,1010.93
2017-04-29T04:52:02.852Z,1010.94
2017-04-29T04:52:50.917Z,1010.94
2017-04-29T04:53:39.934Z,1010.99
2017-04-29T04:54:27.993Z,1010.96
2017-04-29T04:55:16.018Z,1010.97
2017-04-29T04:56:05.040Z,1011.01
2017-04-29T04:56:53.072Z,1010.98
2017-04-29T04:57:41.167Z,1011.05
2017-04-29T04:58:30.133Z,1011.03
2017-04-29T04:59:24.254Z,1011.06
2017-04-29T05:00:12.314Z,1011.06
2017-04-29T05:01:00.284Z,1011.08
2017-04-29T05:01:49.385Z,1011.08
2017-04-29T05:02:37.369Z,1011.09
2017-04-29T05:03:26.425Z,1011.11
2017-04-29T05:04:14.747Z,1011.11
2017-04-29T05:05:02.478Z,1011.13
2017-04-29T05:05:50.529Z,1011.12
2017-04-29T05:06:39.585Z,1011.13
2017-04-29T05:07:27.576Z,1011.12
2017-04-29T05:08:21.589Z,1011.12
2017-04-29T05:09:09.645Z,1011.12
2017-04-29T05:09:57.721Z,1011.14
2017-04-29T05:10:46.721Z,1011.19
2017-04-29T05:11:34.833Z,1011.15
2017-04-29T05:12:23.948Z,1011.16
2017-04-29T05:13:11.833Z,1011.19
2017-04-29T05:13:59.906Z,1011.18
2017-04-29T05:14:48.977Z,1011.16
2017-04-29T05:15:36.984Z,1011.15
2017-04-29T05:16:26.032Z,1011.19
2017-04-29T05:17:14.189Z,1011.19
2017-04-29T05:18:02.122Z,1011.15
2017-04-29T05:18:51.126Z,1011.16
2017-04-29T05:19:39.196Z,1011.21
2017-04-29T05:20:28.207Z,1011.23
2017-04-29T05:21:22.304Z,1011.18
2017-04-29T05:22:22.293Z,1011.21
2017-04-29T05:23:11.350Z,1011.21
2017-04-29T05:24:06.357Z,1011.23
2017-04-29T05:25:06.410Z,1011.21
2017-04-29T05:26:01.414Z,1011.21
2017-04-29T05:26:56.481Z,1011.19
2017-04-29T05:27:50.513Z,1011.21
2017-04-29T05:28:51.525Z,1011.27
2017-04-29T05:29:51.592Z,1011.22
2017-04-29T05:30:46.573Z,1011.25
2017-04-29T05:31:46.609Z,1011.26
2017-04-29T05:32:46.655Z,1011.22
2017-04-29T05:33:46.811Z,1011.22
2017-04-29T05:34:40.669Z,1011.21
2017-04-29T05:35:40.731Z,1011.22
2017-04-29T05:36:35.743Z,1011.25
2017-04-29T05:37:30.824Z,1011.26
2017-04-29T05:38:24.844Z,1011.21
2017-04-29T05:39:25.875Z,1011.28
2017-04-29T05:40:31.862Z,1011.29
2017-04-29T05:41:31.951Z,1011.27
2017-04-29T05:42:31.956Z,1011.25
2017-04-29T05:43:25.944Z,1011.27
2017-04-29T05:44:27.041Z,1011.29
2017-04-29T05:45:22.040Z,1011.31
2017-04-29T05:46:22.101Z,1011.31
2017-04-29T05:47:16.070Z,1011.27
2017-04-29T05:48:04.160Z,1011.29
2017-04-29T05:48:53.150Z,1011.28
2017-04-29T05:49:42.658Z,1011.30
2017-04-29T05:50:30.278Z,1011.33
2017-04-29T05:51:19.336Z,1011.34
2017-04-29T05:52:14.349Z,1011.33
2017-04-29T05:53:14.378Z,1011.25
2017-04-29T05:54:14.908Z,1011.30
2017-04-29T05:55:14.442Z,1011.28
2017-04-29T05:56:03.472Z,1011.36
2017-04-29T05:56:57.534Z,1011.32
2017-04-29T05:57:45.571Z,1011.31
2017-04-29T05:58:34.591Z,1011.29
2017-04-29T05:59:22.626Z,1011.32
2017-04-29T06:00:10.822Z,1011.30
2017-04-29T06:00:59.769Z,1011.29
2017-04-29T06:01:47.752Z,1011.27
2017-04-29T06:02:35.805Z,1011.29
2017-04-29T06:03:23.840Z,1011.30
2017-04-29T06:04:17.859Z,1011.25
2017-04-29T06:05:06.936Z,1011.28
2017-04-29T06:06:07.022Z,1011.25
2017-04-29T06:07:06.953Z,1011.26
2017-04-29T06:08:01.037Z,1011.20
2017-04-29T06:09:02.060Z,1011.20
2017-04-29T06:10:03.087Z,1011.22
2017-04-29T06:10:58.143Z,1011.23
2017-04-29T06:11:58.450Z,1011.29
2017-04-29T06:12:53.163Z,1011.29
2017-04-29T06:13:53.249Z,1011.33
2017-04-29T06:14:48.713Z,1011.36
2017-04-29T06:15:37.354Z,1011.35
2017-04-29T06:16:31.357Z,1011.38
2017-04-29T06:17:19.683Z,1011.40
2017-04-29T06:18:08.421Z,1011.42
2017-04-29T06:19:02.471Z,1011.44
2017-04-29T06:19:57.510Z,1011.42
2017-04-29T06:20:57.546Z,1011.42
2017-04-29T06:21:51.535Z,1011.45
2017-04-29T06:22:52.138Z,1011.49
2017-04-29T06:23:51.679Z,1011.45
2017-04-29T06:24:51.650Z,1011.46
2017-04-29T06:25:40.733Z,1011.43
2017-04-29T06:26:29.757Z,1011.48
2017-04-29T06:27:18.831Z,1011.48
2017-04-29T06:28:07.175Z,1011.49
2017-04-29T06:28:55.912Z,1011.48
2017-04-29T06:29:50.266Z,1011.49
2017-04-29T06:30:49.936Z,1011.51
2017-04-29T06:31:44.007Z,1011.52
2017-04-29T06:32:38.063Z,1011.56
2017-04-29T06:33:38.457Z,1011.53
2017-04-29T06:34:38.118Z,1011.58
2017-04-29T06:35:33.172Z,1011.61
2017-04-29T06:36:27.175Z,1011.59
2017-04-29T06:37:21.251Z,1011.61
2017-04-29T06:38:15.295Z,1011.61
2017-04-29T06:39:09.798Z,1011.65
2017-04-29T06:40:03.340Z,1011.64
2017-04-29T06:40:58.380Z,1011.63
2017-04-29T06:41:52.454Z,1011.65
2017-04-29T06:42:46.439Z,1011.70
2017-04-29T06:43:34.524Z,1011.70
2017-04-29T06:44:29.804Z,1011.71
2017-04-29T06:45:24.562Z,1011.69
2017-04-29T06:46:13.619Z,1011.67
2017-04-29T06:47:02.649Z,1011.69
2017-04-29T06:47:50.669Z,1011.69
2017-04-29T06:48:44.728Z,1011.71
2017-04-29T06:49:39.098Z,1011.72
2017-04-29T06:50:33.823Z,1011.71
2017-04-29T06:51:22.859Z,1011.72
2017-04-29T06:52:22.925Z,1011.68
2017-04-29T06:53:17.961Z,1011.70
2017-04-29T06:54:11.977Z,1011.73
2017-04-29T06:55:01.712Z,1011.73
2017-04-29T06:55:50.053Z,1011.73
2017-04-29T06:56:39.116Z,1011.72
2017-04-29T06:57:28.198Z,1011.72
2017-04-29T06:58:28.168Z,1011.70
2017-04-29T06:59:17.709Z,1011.68
2017-04-29T07:00:05.550Z,1011.69
2017-04-29T07:01:05.349Z,1011.67
2017-04-29T07:01:59.346Z,1011.66
2017-04-29T07:02:47.421Z,1011.66
2017-04-29T07:03:41.425Z,1011.67
2017-04-29T07:04:29.527Z,1011.68
2017-04-29T07:05:30.804Z,1011.70
2017-04-29T07:06:30.580Z,1011.68
2017-04-29T07:07:18.599Z,1011.71
2017-04-29T07:08:12.660Z,1011.70
2017-04-29T07:09:01.726Z,1011.89
2017-04-29T07:09:51.125Z,1011.81
2017-04-29T07:10:38.895Z,1011.86
2017-04-29T07:11:32.825Z,1011.72
2017-04-29T07:12:21.882Z,1011.65
2017-04-29T07:13:16.920Z,1011.72
2017-04-29T07:14:11.282Z,1011.71
2017-04-29T07:15:00.032Z,1011.61
2017-04-29T07:15:54.070Z,1011.53
2017-04-29T07:16:49.158Z,1011.55
2017-04-29T07:17:43.137Z,1011.58
2017-04-29T07:18:37.138Z,1011.63
2017-04-29T07:19:37.275Z,1011.53
2017-04-29T07:20:31.271Z,1011.73
2017-04-29T07:21:20.308Z,1011.73
2017-04-29T07:22:20.347Z,1011.72
2017-04-29T07:23:15.398Z,1011.78
2017-04-29T07:24:09.439Z,1011.69
2017-04-29T07:25:03.475Z,1011.70
2017-04-29T07:25:58.558Z,1011.74
2017-04-29T07:26:52.633Z,1011.80
2017-04-29T07:27:52.648Z,1011.92
2017-04-29T07:28:41.689Z,1011.83
2017-04-29T07:29:35.754Z,1011.91
2017-04-29T07:30:30.751Z,1011.86
2017-04-29T07:31:30.806Z,1011.86
2017-04-29T07:32:24.894Z,1011.83
2017-04-29T07:33:18.903Z,1011.79
2017-04-29T07:34:13.410Z,1011.80
2017-04-29T07:35:07.973Z,1011.89
2017-04-29T07:36:08.027Z,1011.82
2017-04-29T07:37:02.073Z,1011.82
2017-04-29T07:37:51.130Z,1011.88
2017-04-29T07:38:45.178Z,1011.82
2017-04-29T07:39:39.208Z,1011.84
2017-04-29T07:40:28.283Z,1011.85
2017-04-29T07:41:28.305Z,1011.90
2017-04-29T07:42:22.369Z,1011.90
2017-04-29T07:43:23.531Z,1011.90
2017-04-29T07:44:23.466Z,1011.91
2017-04-29T07:45:18.471Z,1011.88
2017-04-29T07:46:18.549Z,1011.93
2017-04-29T07:47:07.601Z,1011.91
2017-04-29T07:47:55.641Z,1011.83
2017-04-29T07:48:49.744Z,1011.89
2017-04-29T07:49:37.750Z,1011.87
2017-04-29T07:50:31.779Z,1011.91
2017-04-29T07:51:31.834Z,1011.95
2017-04-29T07:52:26.853Z,1011.96
2017-04-29T07:53:26.906Z,1011.95
2017-04-29T07:54:16.437Z,1011.88
2017-04-29T07:55:10.989Z,1011.85
2017-04-29T07:56:05.033Z,1011.86
2017-04-29T07:56:54.042Z,1012.03
2017-04-29T07:57:54.123Z,1011.88
2017-04-29T07:58:42.141Z,1011.93
2017-04-29T07:59:31.261Z,1011.88
2017-04-29T08:00:26.242Z,1011.93
2017-04-29T08:01:21.318Z,1011.84
2017-04-29T08:02:15.351Z,1011.93
2017-04-29T08:03:04.372Z,1012.03
2017-04-29T08:03:53.457Z,1011.87
2017-04-29T08:04:48.520Z,1011.87
2017-04-29T08:05:37.552Z,1011.88
2017-04-29T08:06:32.536Z,1011.94
2017-04-29T08:07:26.604Z,1011.89
2017-04-29T08:08:21.642Z,1011.83
2017-04-29T08:09:17.066Z,1011.79
2017-04-29T08:10:05.786Z,1011.78
2017-04-29T08:11:00.780Z,1011.80
2017-04-29T08:11:49.850Z,1011.81
2017-04-29T08:12:38.912Z,1011.79
2017-04-29T08:13:32.971Z,1011.81
2017-04-29T08:14:21.946Z,1011.87
2017-04-29T08:15:23.062Z,1011.91
2017-04-29T08:16:18.068Z,1011.96
2017-04-29T08:17:07.140Z,1012.05
2017-04-29T08:18:02.171Z,1012.12
2017-04-29T08:18:51.259Z,1012.16
2017-04-29T08:19:40.256Z,1012.20
2017-04-29T08:20:29.362Z,1012.15
2017-04-29T08:21:18.366Z,1012.10
2017-04-29T08:22:12.789Z,1012.06
2017-04-29T08:23:00.465Z,1012.10
2017-04-29T08:23:48.509Z,1012.00
2017-04-29T08:24:49.887Z,1011.92
2017-04-29T08:25:50.604Z,1011.93
2017-04-29T08:26:39.691Z,1011.91
2017-04-29T08:27:27.696Z,1011.84
2017-04-29T08:28:21.761Z,1011.93
2017-04-29T08:29:09.769Z,1011.89
2017-04-29T08:29:58.840Z,1011.94
2017-04-29T08:30:46.883Z,1012.00
2017-04-29T08:31:42.054Z,1012.11
2017-04-29T08:32:29.943Z,1012.08
2017-04-29T08:33:19.054Z,1012.12
2017-04-29T08:34:07.048Z,1012.17
2017-04-29T08:35:01.097Z,1012.15
2017-04-29T08:35:49.162Z,1012.20
2017-04-29T08:36:50.209Z,1012.22
2017-04-29T08:37:38.243Z,1012.23
2017-04-29T08:38:27.326Z,1012.24
2017-04-29T08:39:21.294Z,1012.33
2017-04-29T08:40:16.349Z,1012.35
2017-04-29T08:41:10.432Z,1012.36
2017-04-29T08:41:59.524Z,1012.35
2017-04-29T08:42:47.533Z,1012.35
2017-04-29T08:43:47.588Z,1012.40
2017-04-29T08:44:42.619Z,1012.40
2017-04-29T08:45:37.652Z,1012.36
2017-04-29T08:46:26.677Z,1012.40
2017-04-29T08:47:14.969Z,1012.43
2017-04-29T08:48:08.772Z,1012.46
2017-04-29T08:48:56.853Z,1012.49
2017-04-29T08:49:51.328Z,1012.45
2017-04-29T08:50:44.943Z,1012.47
2017-04-29T08:51:38.956Z,1012.44
2017-04-29T08:52:33.023Z,1012.46
2017-04-29T08:53:27.035Z,1012.49
2017-04-29T08:54:16.101Z,1012.45
2017-04-29T08:55:10.132Z,1012.47
2017-04-29T08:56:04.195Z,1012.48
2017-04-29T08:56:53.232Z,1012.48
2017-04-29T08:57:47.315Z,1012.43
2017-04-29T08:58:42.339Z,1012.43
2017-04-29T08:59:36.332Z,1012.42
2017-04-29T09:00:24.402Z,1012.40
2017-04-29T09:01:24.453Z,1012.54
2017-04-29T09:02:12.899Z,1012.55
2017-04-29T09:03:07.669Z,1012.52
2017-04-29T09:04:01.565Z,1012.51
2017-04-29T09:04:55.658Z,1012.57
2017-04-29T09:05:55.687Z,1012.54
2017-04-29T09:06:50.696Z,1012.54
2017-04-29T09:07:44.759Z,1012.59
2017-04-29T09:08:38.853Z,1012.62
2017-04-29T09:09:32.874Z,1012.66
2017-04-29T09:10:33.894Z,1012.65
2017-04-29T09:11:28.976Z,1012.68
2017-04-29T09:12:16.978Z,1012.69
2017-04-29T09:13:11.055Z,1012.65
2017-04-29T09:14:00.099Z,1012.65
2017-04-29T09:14:49.156Z,1012.58
2017-04-29T09:15:44.182Z,1012.51
2017-04-29T09:16:33.158Z,1012.51
2017-04-29T09:17:21.246Z,1012.51
2017-04-29T09:18:10.310Z,1012.47
2017-04-29T09:18:59.407Z,1012.48
2017-04-29T09:19:53.841Z,1012.40
2017-04-29T09:20:47.436Z,1012.37
2017-04-29T09:21:41.475Z,1012.44
2017-04-29T09:22:35.537Z,1012.42
2017-04-29T09:23:23.602Z,1012.49
2017-04-29T09:24:12.617Z,1012.46
2017-04-29T09:25:12.647Z,1012.39
2017-04-29T09:26:00.723Z,1012.36
2017-04-29T09:27:00.751Z,1012.40
2017-04-29T09:27:54.773Z,1012.52
2017-04-29T09:28:49.841Z,1012.33
2017-04-29T09:29:49.825Z,1012.30
2017-04-29T09:30:49.934Z,1012.29
2017-04-29T09:31:43.957Z,1012.43
2017-04-29T09:32:38.021Z,1012.28
2017-04-29T09:33:32.074Z,1012.50
2017-04-29T09:34:20.530Z,1012.54
2017-04-29T09:35:09.129Z,1012.49
2017-04-29T09:36:03.231Z,1012.41
2017-04-29T09:36:57.251Z,1012.42
2017-04-29T09:37:52.244Z,1012.34
2017-04-29T09:38:40.347Z,1012.34
2017-04-29T09:39:40.355Z,1012.33
2017-04-29T09:40:35.437Z,1012.32
2017-04-29T09:41:29.472Z,1012.37
2017-04-29T09:42:23.550Z,1012.31
2017-04-29T09:43:17.549Z,1012.38
2017-04-29T09:44:17.626Z,1012.40
2017-04-29T09:45:05.645Z,1012.43
2017-04-29T09:45:59.750Z,1012.49
2017-04-29T09:46:53.765Z,1012.54
2017-04-29T09:47:41.821Z,1012.59
2017-04-29T09:48:30.878Z,1012.51
2017-04-29T09:49:20.442Z,1012.39
2017-04-29T09:50:14.436Z,1012.35
2017-04-29T09:51:09.023Z,1012.19
2017-04-29T09:52:04.030Z,1012.20
2017-04-29T09:52:52.306Z,1012.27
2017-04-29T09:53:41.213Z,1012.63
2017-04-29T09:54:29.258Z,1012.72
2017-04-29T09:55:24.334Z,1012.67
2017-04-29T09:56:25.344Z,1012.31
2017-04-29T09:57:14.448Z,1012.29
2017-04-29T09:58:03.477Z,1012.28
2017-04-29T09:58:52.541Z,1012.42
2017-04-29T09:59:41.568Z,1012.27
2017-04-29T10:00:30.623Z,1012.15
2017-04-29T10:01:19.727Z,1012.09
2017-04-29T10:02:07.745Z,1012.16
2017-04-29T10:03:07.811Z,1012.16
2017-04-29T10:04:01.856Z,1012.13
2017-04-29T10:04:55.872Z,1012.17
2017-04-29T10:05:44.933Z,1012.22
2017-04-29T10:06:34.040Z,1012.27
2017-04-29T10:07:29.037Z,1012.30
2017-04-29T10:08:18.169Z,1012.35
2017-04-29T10:09:07.183Z,1012.42
2017-04-29T10:09:56.202Z,1012.45
2017-04-29T10:10:56.285Z,1012.50
2017-04-29T10:11:51.317Z,1012.50
2017-04-29T10:12:40.349Z,1012.52
2017-04-29T10:13:29.433Z,1012.51
2017-04-29T10:14:23.507Z,1012.47
2017-04-29T10:15:18.506Z,1012.44
2017-04-29T10:16:12.554Z,1012.45
2017-04-29T10:17:06.626Z,1012.45
2017-04-29T10:18:06.626Z,1012.45
2017-04-29T10:19:06.725Z,1012.44
2017-04-29T10:19:56.108Z,1012.70
2017-04-29T10:20:49.768Z,1012.38
2017-04-29T10:21:37.838Z,1012.33
2017-04-29T10:22:26.857Z,1012.37
2017-04-29T10:23:26.951Z,1012.37
2017-04-29T10:24:15.026Z,1012.28
2017-04-29T10:25:15.015Z,1012.30
2017-04-29T10:26:04.050Z,1012.27
2017-04-29T10:26:53.143Z,1012.29
2017-04-29T10:27:47.162Z,1012.32
2017-04-29T10:28:42.204Z,1012.30
2017-04-29T10:29:37.336Z,1012.33
2017-04-29T10:30:25.310Z,1012.33
2017-04-29T10:31:19.384Z,1012.42
2017-04-29T10:32:13.394Z,1012.51
2017-04-29T10:33:13.427Z,1012.47
2017-04-29T10:34:01.538Z,1012.44
2017-04-29T10:34:55.997Z,1012.43
2017-04-29T10:35:49.583Z,1012.44
2017-04-29T10:36:43.598Z,1012.52
2017-04-29T10:37:43.694Z,1012.68
2017-04-29T10:38:32.736Z,1012.73
2017-04-29T10:39:27.859Z,1012.73
2017-04-29T10:40:21.929Z,1012.67
2017-04-29T10:41:10.902Z,1012.66
2017-04-29T10:41:59.972Z,1012.65
2017-04-29T10:42:48.021Z,1012.68
2017-04-29T10:43:42.077Z,1012.37
2017-04-29T10:44:30.150Z,1012.34
2017-04-29T10:45:24.151Z,1012.34